NFTL/HPA METAR and TAF weather

Enter ICAO airport designator
Station Type Date Time Source
NFTL METAR 2019/12/10 19:00 UTC NOAA

NFTL 101900Z 27006KT 9999 FEW017 28/23 Q1008


Station Type Date Time Source
NFTL Decoded METAR 2019/12/10 19:00 UTC NOAA

Haapai, Tonga (NFTL) 19-48S 174-21W 3M
Dec 10, 2019 - 02:00 PM EST / 2019.12.10 1900 UTC
Wind: from the W (270 degrees) at 7 MPH (6 KT):0
Visibility: greater than 7 mile(s):0
Sky conditions: mostly clear
Temperature: 82 F (28 C)
Dew Point: 73 F (23 C)
Relative Humidity: 74%
Pressure (altimeter): 29.77 in. Hg (1008 hPa)
ob: NFTL 101900Z 27006KT 9999 FEW017 28/23 Q1008
cycle: 19

Station Type Date Time Source
NFTL TAF 2018/02/21 17:19 UTC NOAA

TAF NFTL 211605Z 2117/2208 12010KT 9999 SCT018

Example: see airport list